Allen Park, Michigan
Current Conditions -  °F | °C
As of 9:53 PM on Monday 22 Dec 2014 (Local Time) from KDTW Reporting Station
Overcast Overcast  
Wind Chill: 31°   Ceiling: 10000
Heat Index: 37°   Visibility: 7mi
Dew Point: 33°   Wind: 8mph
Humidity: 86%   Direction: 60°ENE
Pressure: 29.89"   Gusts: NA
Location:  42.26°N, 83.22°W
Report Text: KDTW 230253Z 06007KT 7SM FEW040 OVC100 03/01 A2989 RMK AO2 SLP125 T00280006 58015
Loading
Personal Weather Stations






























Interactive Weather Map New forecast layout! Learn more

10-Day Weather Forecast

Advertisements
Track Severe Weather on mobile